sensor_id;sensor_type;location;lat;lon;timestamp;P1;durP1;ratioP1;P2;durP2;ratioP2
12556;SDS011;6344;49.932;8.308;2022-07-19T00:01:29;7.47;;;5.77;;
12556;SDS011;6344;49.932;8.308;2022-07-19T00:03:57;8.30;;;6.60;;
12556;SDS011;6344;49.932;8.308;2022-07-19T00:06:24;6.20;;;5.33;;
12556;SDS011;6344;49.932;8.308;2022-07-19T00:08:52;7.20;;;6.23;;
12556;SDS011;6344;49.932;8.308;2022-07-19T00:11:19;8.50;;;6.23;;
12556;SDS011;6344;49.932;8.308;2022-07-19T00:13:46;8.63;;;7.93;;
12556;SDS011;6344;49.932;8.308;2022-07-19T00:16:13;10.93;;;6.70;;
12556;SDS011;6344;49.932;8.308;2022-07-19T00:18:41;8.00;;;7.20;;
12556;SDS011;6344;49.932;8.308;2022-07-19T00:21:08;7.40;;;6.70;;
12556;SDS011;6344;49.932;8.308;2022-07-19T00:23:35;8.03;;;7.20;;
12556;SDS011;6344;49.932;8.308;2022-07-19T00:26:03;9.53;;;7.37;;
12556;SDS011;6344;49.932;8.308;2022-07-19T00:28:31;8.83;;;8.10;;
12556;SDS011;6344;49.932;8.308;2022-07-19T00:30:58;8.43;;;7.40;;
12556;SDS011;6344;49.932;8.308;2022-07-19T00:33:25;8.87;;;8.07;;
12556;SDS011;6344;49.932;8.308;2022-07-19T00:35:52;8.67;;;7.50;;
12556;SDS011;6344;49.932;8.308;2022-07-19T00:38:19;11.17;;;7.10;;
12556;SDS011;6344;49.932;8.308;2022-07-19T00:40:46;8.47;;;7.67;;
12556;SDS011;6344;49.932;8.308;2022-07-19T00:43:15;8.67;;;7.97;;
12556;SDS011;6344;49.932;8.308;2022-07-19T00:45:42;10.30;;;7.97;;
12556;SDS011;6344;49.932;8.308;2022-07-19T00:48:09;8.13;;;7.43;;
12556;SDS011;6344;49.932;8.308;2022-07-19T00:50:36;8.30;;;7.60;;
12556;SDS011;6344;49.932;8.308;2022-07-19T00:53:03;8.17;;;7.30;;
12556;SDS011;6344;49.932;8.308;2022-07-19T00:55:32;7.83;;;7.03;;
12556;SDS011;6344;49.932;8.308;2022-07-19T00:58:00;7.20;;;6.63;;
12556;SDS011;6344;49.932;8.308;2022-07-19T01:00:29;8.23;;;7.43;;
12556;SDS011;6344;49.932;8.308;2022-07-19T01:02:57;8.17;;;7.43;;
12556;SDS011;6344;49.932;8.308;2022-07-19T01:05:25;8.07;;;7.30;;
12556;SDS011;6344;49.932;8.308;2022-07-19T01:07:52;7.80;;;6.97;;
12556;SDS011;6344;49.932;8.308;2022-07-19T01:10:19;6.80;;;6.20;;
12556;SDS011;6344;49.932;8.308;2022-07-19T01:12:46;7.93;;;7.33;;
12556;SDS011;6344;49.932;8.308;2022-07-19T01:15:14;7.77;;;6.93;;
12556;SDS011;6344;49.932;8.308;2022-07-19T01:17:43;7.07;;;6.37;;
12556;SDS011;6344;49.932;8.308;2022-07-19T01:20:10;7.50;;;6.90;;
12556;SDS011;6344;49.932;8.308;2022-07-19T01:22:39;7.87;;;7.27;;
12556;SDS011;6344;49.932;8.308;2022-07-19T01:25:07;7.20;;;6.53;;
12556;SDS011;6344;49.932;8.308;2022-07-19T01:27:37;7.87;;;7.07;;
12556;SDS011;6344;49.932;8.308;2022-07-19T01:30:09;7.13;;;6.43;;
12556;SDS011;6344;49.932;8.308;2022-07-19T01:32:36;9.70;;;7.20;;
12556;SDS011;6344;49.932;8.308;2022-07-19T01:35:04;6.40;;;5.80;;
12556;SDS011;6344;49.932;8.308;2022-07-19T01:37:31;5.93;;;5.20;;
12556;SDS011;6344;49.932;8.308;2022-07-19T01:40:00;7.03;;;5.83;;
12556;SDS011;6344;49.932;8.308;2022-07-19T01:42:27;7.23;;;5.97;;
12556;SDS011;6344;49.932;8.308;2022-07-19T01:44:55;6.97;;;6.37;;
12556;SDS011;6344;49.932;8.308;2022-07-19T01:47:22;8.83;;;6.57;;
12556;SDS011;6344;49.932;8.308;2022-07-19T01:49:49;5.67;;;5.17;;
12556;SDS011;6344;49.932;8.308;2022-07-19T01:52:16;6.87;;;6.37;;
12556;SDS011;6344;49.932;8.308;2022-07-19T01:54:43;6.50;;;6.10;;
12556;SDS011;6344;49.932;8.308;2022-07-19T01:57:12;5.93;;;5.13;;
12556;SDS011;6344;49.932;8.308;2022-07-19T01:59:39;6.10;;;5.60;;
12556;SDS011;6344;49.932;8.308;2022-07-19T02:02:06;5.70;;;4.73;;
12556;SDS011;6344;49.932;8.308;2022-07-19T02:04:34;6.47;;;5.87;;
12556;SDS011;6344;49.932;8.308;2022-07-19T02:07:01;5.97;;;5.50;;
12556;SDS011;6344;49.932;8.308;2022-07-19T02:09:28;7.77;;;6.40;;
12556;SDS011;6344;49.932;8.308;2022-07-19T02:11:55;5.90;;;5.40;;
12556;SDS011;6344;49.932;8.308;2022-07-19T02:14:24;8.80;;;6.33;;
12556;SDS011;6344;49.932;8.308;2022-07-19T02:16:51;7.97;;;6.30;;
12556;SDS011;6344;49.932;8.308;2022-07-19T02:19:18;6.73;;;5.47;;
12556;SDS011;6344;49.932;8.308;2022-07-19T02:21:46;7.07;;;6.20;;
12556;SDS011;6344;49.932;8.308;2022-07-19T02:24:13;7.20;;;6.27;;
12556;SDS011;6344;49.932;8.308;2022-07-19T02:26:40;7.00;;;5.87;;
12556;SDS011;6344;49.932;8.308;2022-07-19T02:29:07;5.83;;;5.30;;
12556;SDS011;6344;49.932;8.308;2022-07-19T02:31:36;7.93;;;6.47;;
12556;SDS011;6344;49.932;8.308;2022-07-19T02:34:03;6.37;;;5.53;;
12556;SDS011;6344;49.932;8.308;2022-07-19T02:36:30;6.70;;;6.10;;
12556;SDS011;6344;49.932;8.308;2022-07-19T02:38:57;6.63;;;5.97;;
12556;SDS011;6344;49.932;8.308;2022-07-19T02:41:24;12.20;;;5.93;;
12556;SDS011;6344;49.932;8.308;2022-07-19T02:43:51;9.77;;;6.63;;
12556;SDS011;6344;49.932;8.308;2022-07-19T02:46:19;7.27;;;5.77;;
12556;SDS011;6344;49.932;8.308;2022-07-19T02:48:47;7.13;;;5.13;;
12556;SDS011;6344;49.932;8.308;2022-07-19T02:51:14;5.60;;;5.10;;
12556;SDS011;6344;49.932;8.308;2022-07-19T02:53:41;6.53;;;6.00;;
12556;SDS011;6344;49.932;8.308;2022-07-19T02:56:08;6.17;;;5.67;;
12556;SDS011;6344;49.932;8.308;2022-07-19T02:58:35;6.30;;;5.70;;
12556;SDS011;6344;49.932;8.308;2022-07-19T03:01:02;6.40;;;5.80;;
12556;SDS011;6344;49.932;8.308;2022-07-19T03:03:30;7.80;;;6.00;;
12556;SDS011;6344;49.932;8.308;2022-07-19T03:06:15;6.37;;;5.77;;
12556;SDS011;6344;49.932;8.308;2022-07-19T03:08:42;6.33;;;5.73;;
12556;SDS011;6344;49.932;8.308;2022-07-19T03:11:09;5.93;;;5.33;;
12556;SDS011;6344;49.932;8.308;2022-07-19T03:13:37;6.13;;;5.53;;
12556;SDS011;6344;49.932;8.308;2022-07-19T03:16:04;6.17;;;5.50;;
12556;SDS011;6344;49.932;8.308;2022-07-19T03:18:32;9.57;;;5.40;;
12556;SDS011;6344;49.932;8.308;2022-07-19T03:20:59;6.30;;;5.60;;
12556;SDS011;6344;49.932;8.308;2022-07-19T03:23:30;6.70;;;6.20;;
12556;SDS011;6344;49.932;8.308;2022-07-19T03:25:57;6.50;;;5.90;;
12556;SDS011;6344;49.932;8.308;2022-07-19T03:28:24;6.30;;;5.70;;
12556;SDS011;6344;49.932;8.308;2022-07-19T03:30:52;7.37;;;6.77;;
12556;SDS011;6344;49.932;8.308;2022-07-19T03:33:19;5.60;;;5.10;;
12556;SDS011;6344;49.932;8.308;2022-07-19T03:35:46;8.60;;;5.80;;
12556;SDS011;6344;49.932;8.308;2022-07-19T03:38:13;6.97;;;5.67;;
12556;SDS011;6344;49.932;8.308;2022-07-19T03:40:43;7.10;;;5.97;;
12556;SDS011;6344;49.932;8.308;2022-07-19T03:43:12;7.57;;;6.87;;
12556;SDS011;6344;49.932;8.308;2022-07-19T03:45:39;7.83;;;6.63;;
12556;SDS011;6344;49.932;8.308;2022-07-19T03:48:06;7.33;;;5.87;;
12556;SDS011;6344;49.932;8.308;2022-07-19T03:50:33;6.23;;;5.63;;
12556;SDS011;6344;49.932;8.308;2022-07-19T03:53:00;6.80;;;5.77;;
12556;SDS011;6344;49.932;8.308;2022-07-19T03:55:27;7.00;;;6.30;;
12556;SDS011;6344;49.932;8.308;2022-07-19T03:57:56;6.73;;;6.13;;
12556;SDS011;6344;49.932;8.308;2022-07-19T04:00:23;6.63;;;5.93;;
12556;SDS011;6344;49.932;8.308;2022-07-19T04:02:50;6.90;;;5.73;;
12556;SDS011;6344;49.932;8.308;2022-07-19T04:05:17;7.20;;;6.30;;
12556;SDS011;6344;49.932;8.308;2022-07-19T04:07:44;8.00;;;7.00;;
12556;SDS011;6344;49.932;8.308;2022-07-19T04:10:11;7.20;;;6.17;;
12556;SDS011;6344;49.932;8.308;2022-07-19T04:12:39;10.07;;;6.87;;
12556;SDS011;6344;49.932;8.308;2022-07-19T04:15:08;8.43;;;6.27;;
12556;SDS011;6344;49.932;8.308;2022-07-19T04:17:35;8.77;;;6.03;;
12556;SDS011;6344;49.932;8.308;2022-07-19T04:20:02;7.33;;;6.63;;
12556;SDS011;6344;49.932;8.308;2022-07-19T04:22:30;8.33;;;7.50;;
12556;SDS011;6344;49.932;8.308;2022-07-19T04:24:57;7.97;;;7.13;;
12556;SDS011;6344;49.932;8.308;2022-07-19T04:27:24;6.90;;;6.20;;
12556;SDS011;6344;49.932;8.308;2022-07-19T04:29:51;13.43;;;7.70;;
12556;SDS011;6344;49.932;8.308;2022-07-19T04:32:20;6.77;;;6.27;;
12556;SDS011;6344;49.932;8.308;2022-07-19T04:34:47;7.23;;;6.60;;
12556;SDS011;6344;49.932;8.308;2022-07-19T04:37:14;8.77;;;6.87;;
12556;SDS011;6344;49.932;8.308;2022-07-19T04:39:41;8.00;;;7.20;;
12556;SDS011;6344;49.932;8.308;2022-07-19T04:42:08;7.97;;;7.17;;
12556;SDS011;6344;49.932;8.308;2022-07-19T04:44:35;8.37;;;6.33;;
12556;SDS011;6344;49.932;8.308;2022-07-19T04:47:03;7.30;;;6.60;;
12556;SDS011;6344;49.932;8.308;2022-07-19T04:49:31;10.13;;;7.70;;
12556;SDS011;6344;49.932;8.308;2022-07-19T04:51:58;8.97;;;6.37;;
12556;SDS011;6344;49.932;8.308;2022-07-19T04:54:25;9.77;;;6.47;;
12556;SDS011;6344;49.932;8.308;2022-07-19T04:56:52;14.90;;;7.27;;
12556;SDS011;6344;49.932;8.308;2022-07-19T04:59:19;7.70;;;7.00;;
12556;SDS011;6344;49.932;8.308;2022-07-19T05:01:46;7.53;;;6.80;;
12556;SDS011;6344;49.932;8.308;2022-07-19T05:04:14;7.40;;;6.70;;
12556;SDS011;6344;49.932;8.308;2022-07-19T05:06:43;7.30;;;6.60;;
12556;SDS011;6344;49.932;8.308;2022-07-19T05:09:11;8.03;;;7.23;;
12556;SDS011;6344;49.932;8.308;2022-07-19T05:11:38;7.07;;;6.43;;
12556;SDS011;6344;49.932;8.308;2022-07-19T05:14:05;9.93;;;7.00;;
12556;SDS011;6344;49.932;8.308;2022-07-19T05:16:32;13.70;;;6.67;;
12556;SDS011;6344;49.932;8.308;2022-07-19T05:18:59;9.70;;;7.40;;
12556;SDS011;6344;49.932;8.308;2022-07-19T05:21:26;6.93;;;6.23;;
12556;SDS011;6344;49.932;8.308;2022-07-19T05:23:54;7.87;;;6.83;;
12556;SDS011;6344;49.932;8.308;2022-07-19T05:26:21;6.37;;;5.77;;
12556;SDS011;6344;49.932;8.308;2022-07-19T05:28:49;11.70;;;7.63;;
12556;SDS011;6344;49.932;8.308;2022-07-19T05:31:16;7.30;;;6.60;;
12556;SDS011;6344;49.932;8.308;2022-07-19T05:33:43;7.93;;;7.13;;
12556;SDS011;6344;49.932;8.308;2022-07-19T05:36:10;8.87;;;6.60;;
12556;SDS011;6344;49.932;8.308;2022-07-19T05:38:37;11.73;;;7.33;;
12556;SDS011;6344;49.932;8.308;2022-07-19T05:41:05;7.57;;;6.97;;
12556;SDS011;6344;49.932;8.308;2022-07-19T05:43:34;11.47;;;7.10;;
12556;SDS011;6344;49.932;8.308;2022-07-19T05:46:01;10.07;;;6.30;;
12556;SDS011;6344;49.932;8.308;2022-07-19T05:48:28;8.47;;;6.60;;
12556;SDS011;6344;49.932;8.308;2022-07-19T05:50:56;6.20;;;5.60;;
12556;SDS011;6344;49.932;8.308;2022-07-19T05:53:23;9.97;;;5.77;;
12556;SDS011;6344;49.932;8.308;2022-07-19T05:55:50;9.70;;;5.90;;
12556;SDS011;6344;49.932;8.308;2022-07-19T05:58:18;7.30;;;6.10;;
12556;SDS011;6344;49.932;8.308;2022-07-19T06:00:46;7.47;;;6.87;;
12556;SDS011;6344;49.932;8.308;2022-07-19T06:03:28;6.97;;;6.30;;
12556;SDS011;6344;49.932;8.308;2022-07-19T06:05:55;7.43;;;6.67;;
12556;SDS011;6344;49.932;8.308;2022-07-19T06:08:22;6.40;;;5.53;;
12556;SDS011;6344;49.932;8.308;2022-07-19T06:10:49;6.13;;;5.63;;
12556;SDS011;6344;49.932;8.308;2022-07-19T06:13:16;6.07;;;5.40;;
12556;SDS011;6344;49.932;8.308;2022-07-19T06:15:45;6.43;;;5.37;;
12556;SDS011;6344;49.932;8.308;2022-07-19T06:18:12;7.87;;;6.17;;
12556;SDS011;6344;49.932;8.308;2022-07-19T06:20:39;8.90;;;5.60;;
12556;SDS011;6344;49.932;8.308;2022-07-19T06:23:06;5.80;;;5.10;;
12556;SDS011;6344;49.932;8.308;2022-07-19T06:25:33;6.90;;;6.23;;
12556;SDS011;6344;49.932;8.308;2022-07-19T06:28:00;6.80;;;5.10;;
12556;SDS011;6344;49.932;8.308;2022-07-19T06:30:27;9.90;;;5.83;;
12556;SDS011;6344;49.932;8.308;2022-07-19T06:32:56;5.50;;;4.80;;
12556;SDS011;6344;49.932;8.308;2022-07-19T06:35:23;11.50;;;5.07;;
12556;SDS011;6344;49.932;8.308;2022-07-19T06:37:50;5.00;;;4.47;;
12556;SDS011;6344;49.932;8.308;2022-07-19T06:40:17;7.67;;;5.50;;
12556;SDS011;6344;49.932;8.308;2022-07-19T06:42:45;8.23;;;5.60;;
12556;SDS011;6344;49.932;8.308;2022-07-19T06:45:12;6.73;;;4.93;;
12556;SDS011;6344;49.932;8.308;2022-07-19T06:47:40;12.13;;;4.70;;
12556;SDS011;6344;49.932;8.308;2022-07-19T06:50:09;5.90;;;5.30;;
12556;SDS011;6344;49.932;8.308;2022-07-19T06:52:36;7.00;;;4.80;;
12556;SDS011;6344;49.932;8.308;2022-07-19T06:55:03;4.93;;;4.53;;
12556;SDS011;6344;49.932;8.308;2022-07-19T06:57:30;5.50;;;5.00;;
12556;SDS011;6344;49.932;8.308;2022-07-19T06:59:57;6.27;;;4.70;;
12556;SDS011;6344;49.932;8.308;2022-07-19T07:02:24;5.20;;;4.87;;
12556;SDS011;6344;49.932;8.308;2022-07-19T07:04:52;5.77;;;4.57;;
12556;SDS011;6344;49.932;8.308;2022-07-19T07:07:20;8.33;;;4.37;;
12556;SDS011;6344;49.932;8.308;2022-07-19T07:09:47;6.80;;;5.10;;
12556;SDS011;6344;49.932;8.308;2022-07-19T07:12:14;6.17;;;5.20;;
12556;SDS011;6344;49.932;8.308;2022-07-19T07:14:41;5.70;;;4.67;;
12556;SDS011;6344;49.932;8.308;2022-07-19T07:17:08;4.97;;;4.43;;
12556;SDS011;6344;49.932;8.308;2022-07-19T07:19:35;4.87;;;4.43;;
12556;SDS011;6344;49.932;8.308;2022-07-19T07:22:03;5.50;;;5.00;;
12556;SDS011;6344;49.932;8.308;2022-07-19T07:24:32;12.50;;;5.10;;
12556;SDS011;6344;49.932;8.308;2022-07-19T07:26:59;7.33;;;4.50;;
12556;SDS011;6344;49.932;8.308;2022-07-19T07:29:26;8.10;;;4.63;;
12556;SDS011;6344;49.932;8.308;2022-07-19T07:31:53;4.30;;;3.90;;
12556;SDS011;6344;49.932;8.308;2022-07-19T07:34:20;4.80;;;4.47;;
12556;SDS011;6344;49.932;8.308;2022-07-19T07:36:47;5.97;;;4.50;;
12556;SDS011;6344;49.932;8.308;2022-07-19T07:39:14;4.30;;;4.00;;
12556;SDS011;6344;49.932;8.308;2022-07-19T07:41:43;12.10;;;5.17;;
12556;SDS011;6344;49.932;8.308;2022-07-19T07:44:10;5.20;;;4.77;;
12556;SDS011;6344;49.932;8.308;2022-07-19T07:46:37;5.30;;;4.80;;
12556;SDS011;6344;49.932;8.308;2022-07-19T07:49:04;5.37;;;4.87;;
12556;SDS011;6344;49.932;8.308;2022-07-19T07:51:31;6.90;;;5.70;;
12556;SDS011;6344;49.932;8.308;2022-07-19T07:53:59;6.90;;;4.87;;
12556;SDS011;6344;49.932;8.308;2022-07-19T07:56:26;4.27;;;4.07;;
12556;SDS011;6344;49.932;8.308;2022-07-19T07:58:55;5.07;;;4.57;;
12556;SDS011;6344;49.932;8.308;2022-07-19T08:01:22;5.33;;;4.87;;
12556;SDS011;6344;49.932;8.308;2022-07-19T08:03:49;4.83;;;4.43;;
12556;SDS011;6344;49.932;8.308;2022-07-19T08:06:16;5.30;;;4.47;;
12556;SDS011;6344;49.932;8.308;2022-07-19T08:08:43;4.20;;;3.80;;
12556;SDS011;6344;49.932;8.308;2022-07-19T08:11:10;4.10;;;3.87;;
12556;SDS011;6344;49.932;8.308;2022-07-19T08:13:37;5.50;;;4.70;;
12556;SDS011;6344;49.932;8.308;2022-07-19T08:16:06;5.53;;;4.93;;
12556;SDS011;6344;49.932;8.308;2022-07-19T08:18:33;5.43;;;4.40;;
12556;SDS011;6344;49.932;8.308;2022-07-19T08:21:00;5.43;;;4.70;;
12556;SDS011;6344;49.932;8.308;2022-07-19T08:23:27;4.50;;;3.97;;
12556;SDS011;6344;49.932;8.308;2022-07-19T08:25:54;6.30;;;4.43;;
12556;SDS011;6344;49.932;8.308;2022-07-19T08:28:21;5.80;;;4.30;;
12556;SDS011;6344;49.932;8.308;2022-07-19T08:30:49;4.57;;;4.37;;
12556;SDS011;6344;49.932;8.308;2022-07-19T08:33:17;4.73;;;4.33;;
12556;SDS011;6344;49.932;8.308;2022-07-19T08:35:44;5.63;;;4.43;;
12556;SDS011;6344;49.932;8.308;2022-07-19T08:38:11;5.20;;;4.77;;
12556;SDS011;6344;49.932;8.308;2022-07-19T08:40:41;4.93;;;4.57;;
12556;SDS011;6344;49.932;8.308;2022-07-19T08:43:09;4.87;;;4.50;;
12556;SDS011;6344;49.932;8.308;2022-07-19T08:45:37;5.40;;;4.90;;
12556;SDS011;6344;49.932;8.308;2022-07-19T08:48:06;4.90;;;4.50;;
12556;SDS011;6344;49.932;8.308;2022-07-19T08:50:34;6.33;;;4.93;;
12556;SDS011;6344;49.932;8.308;2022-07-19T08:53:02;4.53;;;4.17;;
12556;SDS011;6344;49.932;8.308;2022-07-19T08:55:29;5.27;;;4.80;;
12556;SDS011;6344;49.932;8.308;2022-07-19T08:57:56;6.63;;;4.70;;
12556;SDS011;6344;49.932;8.308;2022-07-19T09:00:23;5.37;;;4.97;;
12556;SDS011;6344;49.932;8.308;2022-07-19T09:02:51;5.90;;;4.50;;
12556;SDS011;6344;49.932;8.308;2022-07-19T09:05:18;4.17;;;3.87;;
12556;SDS011;6344;49.932;8.308;2022-07-19T09:07:59;7.00;;;4.13;;
12556;SDS011;6344;49.932;8.308;2022-07-19T09:10:26;4.93;;;4.53;;
12556;SDS011;6344;49.932;8.308;2022-07-19T09:12:57;3.80;;;3.50;;
12556;SDS011;6344;49.932;8.308;2022-07-19T09:15:35;4.80;;;4.27;;
12556;SDS011;6344;49.932;8.308;2022-07-19T09:18:05;4.33;;;4.13;;
12556;SDS011;6344;49.932;8.308;2022-07-19T09:20:32;4.60;;;3.90;;
12556;SDS011;6344;49.932;8.308;2022-07-19T09:23:01;4.70;;;4.33;;
12556;SDS011;6344;49.932;8.308;2022-07-19T09:25:33;6.77;;;4.53;;
12556;SDS011;6344;49.932;8.308;2022-07-19T09:28:00;5.50;;;5.10;;
12556;SDS011;6344;49.932;8.308;2022-07-19T09:30:31;4.17;;;3.87;;
12556;SDS011;6344;49.932;8.308;2022-07-19T09:33:05;5.70;;;4.07;;
12556;SDS011;6344;49.932;8.308;2022-07-19T09:35:34;4.40;;;4.20;;
12556;SDS011;6344;49.932;8.308;2022-07-19T09:38:14;4.33;;;4.03;;
12556;SDS011;6344;49.932;8.308;2022-07-19T09:40:41;5.07;;;4.77;;
12556;SDS011;6344;49.932;8.308;2022-07-19T09:43:08;5.03;;;4.80;;
12556;SDS011;6344;49.932;8.308;2022-07-19T09:45:35;4.77;;;4.47;;
12556;SDS011;6344;49.932;8.308;2022-07-19T09:48:03;4.60;;;4.40;;
12556;SDS011;6344;49.932;8.308;2022-07-19T09:50:30;4.93;;;4.20;;
12556;SDS011;6344;49.932;8.308;2022-07-19T09:52:58;4.83;;;4.30;;
12556;SDS011;6344;49.932;8.308;2022-07-19T09:55:27;5.50;;;5.17;;
12556;SDS011;6344;49.932;8.308;2022-07-19T09:57:55;5.80;;;4.50;;
12556;SDS011;6344;49.932;8.308;2022-07-19T10:00:23;4.17;;;3.97;;
12556;SDS011;6344;49.932;8.308;2022-07-19T10:02:51;4.83;;;4.53;;
12556;SDS011;6344;49.932;8.308;2022-07-19T10:05:18;5.97;;;4.47;;
12556;SDS011;6344;49.932;8.308;2022-07-19T10:07:45;4.73;;;4.53;;
12556;SDS011;6344;49.932;8.308;2022-07-19T10:10:13;4.43;;;4.13;;
12556;SDS011;6344;49.932;8.308;2022-07-19T10:12:42;4.30;;;4.10;;
12556;SDS011;6344;49.932;8.308;2022-07-19T10:15:11;4.70;;;4.40;;
12556;SDS011;6344;49.932;8.308;2022-07-19T10:17:39;4.90;;;4.37;;
12556;SDS011;6344;49.932;8.308;2022-07-19T10:20:07;4.57;;;4.27;;
12556;SDS011;6344;49.932;8.308;2022-07-19T10:22:35;3.90;;;3.60;;
12556;SDS011;6344;49.932;8.308;2022-07-19T10:25:10;3.90;;;3.70;;
12556;SDS011;6344;49.932;8.308;2022-07-19T10:27:38;4.07;;;3.87;;
12556;SDS011;6344;49.932;8.308;2022-07-19T10:32:58;3.87;;;3.57;;
12556;SDS011;6344;49.932;8.308;2022-07-19T10:35:27;3.57;;;3.47;;
12556;SDS011;6344;49.932;8.308;2022-07-19T10:37:55;4.27;;;3.80;;
12556;SDS011;6344;49.932;8.308;2022-07-19T10:40:36;4.63;;;4.00;;
12556;SDS011;6344;49.932;8.308;2022-07-19T10:43:06;4.30;;;4.00;;
12556;SDS011;6344;49.932;8.308;2022-07-19T10:45:33;3.87;;;3.53;;
12556;SDS011;6344;49.932;8.308;2022-07-19T10:48:03;3.97;;;3.77;;
12556;SDS011;6344;49.932;8.308;2022-07-19T10:50:41;4.47;;;4.07;;
12556;SDS011;6344;49.932;8.308;2022-07-19T10:53:08;3.73;;;3.53;;
12556;SDS011;6344;49.932;8.308;2022-07-19T10:55:35;3.73;;;3.53;;
12556;SDS011;6344;49.932;8.308;2022-07-19T10:58:09;3.63;;;3.33;;
12556;SDS011;6344;49.932;8.308;2022-07-19T11:00:40;4.10;;;3.90;;
12556;SDS011;6344;49.932;8.308;2022-07-19T11:03:28;4.27;;;3.87;;
12556;SDS011;6344;49.932;8.308;2022-07-19T11:05:56;6.50;;;4.10;;
12556;SDS011;6344;49.932;8.308;2022-07-19T11:08:30;4.07;;;3.40;;
12556;SDS011;6344;49.932;8.308;2022-07-19T11:11:02;3.77;;;3.47;;
12556;SDS011;6344;49.932;8.308;2022-07-19T11:13:29;4.20;;;3.90;;
12556;SDS011;6344;49.932;8.308;2022-07-19T11:15:56;5.50;;;5.20;;
12556;SDS011;6344;49.932;8.308;2022-07-19T11:18:24;4.50;;;4.20;;
12556;SDS011;6344;49.932;8.308;2022-07-19T11:20:55;5.07;;;4.73;;
12556;SDS011;6344;49.932;8.308;2022-07-19T11:23:23;4.27;;;4.00;;
12556;SDS011;6344;49.932;8.308;2022-07-19T11:25:50;4.97;;;4.73;;
12556;SDS011;6344;49.932;8.308;2022-07-19T11:28:20;4.60;;;4.40;;
12556;SDS011;6344;49.932;8.308;2022-07-19T11:30:48;4.73;;;4.27;;
12556;SDS011;6344;49.932;8.308;2022-07-19T11:33:16;10.47;;;9.80;;
12556;SDS011;6344;49.932;8.308;2022-07-19T11:35:54;5.17;;;4.87;;
12556;SDS011;6344;49.932;8.308;2022-07-19T11:38:21;5.03;;;4.63;;
12556;SDS011;6344;49.932;8.308;2022-07-19T11:40:48;4.63;;;4.43;;
12556;SDS011;6344;49.932;8.308;2022-07-19T11:43:16;5.53;;;4.57;;
12556;SDS011;6344;49.932;8.308;2022-07-19T11:45:44;5.53;;;5.17;;
12556;SDS011;6344;49.932;8.308;2022-07-19T11:48:11;5.00;;;4.70;;
12556;SDS011;6344;49.932;8.308;2022-07-19T11:50:38;5.37;;;5.17;;
12556;SDS011;6344;49.932;8.308;2022-07-19T11:53:07;5.33;;;5.03;;
12556;SDS011;6344;49.932;8.308;2022-07-19T11:55:35;5.57;;;5.20;;
12556;SDS011;6344;49.932;8.308;2022-07-19T11:58:05;5.30;;;5.00;;
12556;SDS011;6344;49.932;8.308;2022-07-19T12:00:33;5.97;;;5.47;;
12556;SDS011;6344;49.932;8.308;2022-07-19T12:03:01;5.97;;;5.57;;
12556;SDS011;6344;49.932;8.308;2022-07-19T12:05:30;5.10;;;4.80;;
12556;SDS011;6344;49.932;8.308;2022-07-19T12:07:59;5.20;;;4.83;;
12556;SDS011;6344;49.932;8.308;2022-07-19T12:10:37;5.60;;;5.20;;
12556;SDS011;6344;49.932;8.308;2022-07-19T12:13:06;4.87;;;4.33;;
12556;SDS011;6344;49.932;8.308;2022-07-19T12:15:43;5.47;;;5.17;;
12556;SDS011;6344;49.932;8.308;2022-07-19T12:18:10;5.60;;;5.20;;
12556;SDS011;6344;49.932;8.308;2022-07-19T12:20:38;5.60;;;5.10;;
12556;SDS011;6344;49.932;8.308;2022-07-19T12:23:15;6.83;;;5.03;;
12556;SDS011;6344;49.932;8.308;2022-07-19T12:25:45;5.10;;;4.90;;
12556;SDS011;6344;49.932;8.308;2022-07-19T12:28:12;5.20;;;4.90;;
12556;SDS011;6344;49.932;8.308;2022-07-19T12:30:39;5.30;;;5.00;;
12556;SDS011;6344;49.932;8.308;2022-07-19T12:33:10;5.50;;;5.20;;
12556;SDS011;6344;49.932;8.308;2022-07-19T12:35:40;5.33;;;5.00;;
12556;SDS011;6344;49.932;8.308;2022-07-19T12:38:08;5.20;;;4.90;;
12556;SDS011;6344;49.932;8.308;2022-07-19T12:40:36;5.20;;;4.70;;
12556;SDS011;6344;49.932;8.308;2022-07-19T12:43:05;6.07;;;5.43;;
12556;SDS011;6344;49.932;8.308;2022-07-19T12:45:34;5.03;;;4.83;;
12556;SDS011;6344;49.932;8.308;2022-07-19T12:48:04;5.77;;;5.53;;
12556;SDS011;6344;49.932;8.308;2022-07-19T12:50:32;5.40;;;5.17;;
12556;SDS011;6344;49.932;8.308;2022-07-19T12:53:00;6.00;;;5.20;;
12556;SDS011;6344;49.932;8.308;2022-07-19T12:55:28;5.63;;;5.33;;
12556;SDS011;6344;49.932;8.308;2022-07-19T12:57:56;4.97;;;4.67;;
12556;SDS011;6344;49.932;8.308;2022-07-19T13:00:25;5.13;;;4.77;;
12556;SDS011;6344;49.932;8.308;2022-07-19T13:02:53;5.23;;;5.00;;
12556;SDS011;6344;49.932;8.308;2022-07-19T13:05:21;5.33;;;4.93;;
12556;SDS011;6344;49.932;8.308;2022-07-19T13:07:48;5.10;;;4.80;;
12556;SDS011;6344;49.932;8.308;2022-07-19T13:10:16;5.40;;;4.90;;
12556;SDS011;6344;49.932;8.308;2022-07-19T13:12:43;5.30;;;4.90;;
12556;SDS011;6344;49.932;8.308;2022-07-19T13:15:11;4.90;;;4.60;;
12556;SDS011;6344;49.932;8.308;2022-07-19T13:17:40;5.10;;;4.80;;
12556;SDS011;6344;49.932;8.308;2022-07-19T13:20:08;5.70;;;5.30;;
12556;SDS011;6344;49.932;8.308;2022-07-19T13:22:35;7.20;;;5.90;;
12556;SDS011;6344;49.932;8.308;2022-07-19T13:25:03;5.93;;;5.37;;
12556;SDS011;6344;49.932;8.308;2022-07-19T13:27:30;5.57;;;5.27;;
12556;SDS011;6344;49.932;8.308;2022-07-19T13:29:58;4.87;;;4.63;;
12556;SDS011;6344;49.932;8.308;2022-07-19T13:32:25;5.57;;;5.17;;
12556;SDS011;6344;49.932;8.308;2022-07-19T13:34:53;5.30;;;5.03;;
12556;SDS011;6344;49.932;8.308;2022-07-19T13:37:20;5.37;;;5.07;;
12556;SDS011;6344;49.932;8.308;2022-07-19T13:39:48;4.97;;;4.67;;
12556;SDS011;6344;49.932;8.308;2022-07-19T13:42:15;5.40;;;5.20;;
12556;SDS011;6344;49.932;8.308;2022-07-19T13:44:45;5.53;;;5.23;;
12556;SDS011;6344;49.932;8.308;2022-07-19T13:47:12;5.60;;;5.30;;
12556;SDS011;6344;49.932;8.308;2022-07-19T13:49:39;5.67;;;4.93;;
12556;SDS011;6344;49.932;8.308;2022-07-19T13:52:07;5.30;;;4.90;;
12556;SDS011;6344;49.932;8.308;2022-07-19T13:54:34;5.40;;;5.10;;
12556;SDS011;6344;49.932;8.308;2022-07-19T13:57:02;5.10;;;4.90;;
12556;SDS011;6344;49.932;8.308;2022-07-19T13:59:29;5.40;;;5.10;;
12556;SDS011;6344;49.932;8.308;2022-07-19T14:01:56;4.80;;;4.60;;
12556;SDS011;6344;49.932;8.308;2022-07-19T14:04:24;5.13;;;4.90;;
12556;SDS011;6344;49.932;8.308;2022-07-19T14:06:51;4.90;;;4.50;;
12556;SDS011;6344;49.932;8.308;2022-07-19T14:09:19;5.10;;;4.80;;
12556;SDS011;6344;49.932;8.308;2022-07-19T14:11:46;5.07;;;4.67;;
12556;SDS011;6344;49.932;8.308;2022-07-19T14:14:13;5.10;;;4.90;;
12556;SDS011;6344;49.932;8.308;2022-07-19T14:16:41;5.07;;;4.87;;
12556;SDS011;6344;49.932;8.308;2022-07-19T14:19:08;5.43;;;5.10;;
12556;SDS011;6344;49.932;8.308;2022-07-19T14:21:35;5.37;;;4.87;;
12556;SDS011;6344;49.932;8.308;2022-07-19T14:24:02;5.47;;;4.90;;
12556;SDS011;6344;49.932;8.308;2022-07-19T14:26:31;4.93;;;4.73;;
12556;SDS011;6344;49.932;8.308;2022-07-19T14:28:58;5.10;;;4.90;;
12556;SDS011;6344;49.932;8.308;2022-07-19T14:31:25;5.17;;;4.87;;
12556;SDS011;6344;49.932;8.308;2022-07-19T14:33:52;5.23;;;4.90;;
12556;SDS011;6344;49.932;8.308;2022-07-19T14:36:20;5.60;;;5.30;;
12556;SDS011;6344;49.932;8.308;2022-07-19T14:38:47;5.63;;;5.33;;
12556;SDS011;6344;49.932;8.308;2022-07-19T14:41:14;5.30;;;4.90;;
12556;SDS011;6344;49.932;8.308;2022-07-19T14:43:42;5.43;;;5.13;;
12556;SDS011;6344;49.932;8.308;2022-07-19T14:46:09;5.40;;;5.00;;
12556;SDS011;6344;49.932;8.308;2022-07-19T14:48:36;5.30;;;5.10;;
12556;SDS011;6344;49.932;8.308;2022-07-19T14:51:04;5.27;;;4.97;;
12556;SDS011;6344;49.932;8.308;2022-07-19T14:53:31;5.53;;;5.10;;
12556;SDS011;6344;49.932;8.308;2022-07-19T14:55:58;5.07;;;4.87;;
12556;SDS011;6344;49.932;8.308;2022-07-19T14:58:25;6.00;;;5.40;;
12556;SDS011;6344;49.932;8.308;2022-07-19T15:00:54;5.30;;;4.90;;
12556;SDS011;6344;49.932;8.308;2022-07-19T15:03:21;5.80;;;5.30;;
12556;SDS011;6344;49.932;8.308;2022-07-19T15:05:48;5.43;;;4.93;;
12556;SDS011;6344;49.932;8.308;2022-07-19T15:08:15;4.80;;;4.50;;